Time;durP1;ratioP1;P1;durP2;ratioP2;P2;SDS_P1;SDS_P2;PMS_P1;PMS_P2;Temp;Humidity;BMP_temperature;BMP_pressure;BME280_temperature;BME280_humidity;BME280_pressure;Samples;Min_cycle;Max_cycle;Signal;HPM_P1;HPM_P2
2023/05/25 00:00:04;;;;;;;9.65;3.83;;;25.90;51.40;;;;;;5104622;28;20487;-73
2023/05/25 00:02:32;;;;;;;6.38;4.18;;;25.80;51.50;;;;;;5091907;28;20034;-73
2023/05/25 00:04:59;;;;;;;8.45;3.85;;;25.80;51.60;;;;;;5094088;28;20040;-74
2023/05/25 00:07:25;;;;;;;5.85;3.78;;;25.70;51.70;;;;;;5093420;28;20421;-73
2023/05/25 00:09:51;;;;;;;8.77;3.83;;;25.80;51.70;;;;;;5091409;28;20444;-73
2023/05/25 00:12:17;;;;;;;6.88;3.47;;;25.80;52.00;;;;;;5110569;28;20047;-72
2023/05/25 00:14:43;;;;;;;11.20;3.75;;;25.80;52.00;;;;;;5105208;28;20115;-72
2023/05/25 00:17:10;;;;;;;8.82;4.57;;;25.80;52.00;;;;;;5098872;28;20556;-72
2023/05/25 00:19:41;;;;;;;5.80;4.22;;;25.60;52.00;;;;;;5111290;28;20035;-73
2023/05/25 00:22:10;;;;;;;10.52;4.18;;;25.70;52.00;;;;;;5100012;28;20057;-73
2023/05/25 00:24:37;;;;;;;6.55;3.70;;;25.80;52.10;;;;;;5091999;28;20123;-74
2023/05/25 00:27:05;;;;;;;7.03;3.88;;;25.80;52.20;;;;;;5108180;28;20114;-73
2023/05/25 00:29:32;;;;;;;7.55;3.67;;;25.80;52.20;;;;;;5101971;28;20559;-74
2023/05/25 00:32:00;;;;;;;7.60;3.67;;;25.80;52.30;;;;;;5090892;28;20036;-73
2023/05/25 00:34:26;;;;;;;9.50;3.80;;;25.80;52.20;;;;;;5092561;28;20031;-72
2023/05/25 00:36:53;;;;;;;7.35;3.63;;;25.70;52.40;;;;;;5092248;28;20036;-72
2023/05/25 00:39:19;;;;;;;8.25;4.20;;;25.70;52.50;;;;;;5111041;28;20103;-71
2023/05/25 00:41:46;;;;;;;6.13;3.85;;;25.70;52.50;;;;;;5103900;28;20031;-73
2023/05/25 00:44:14;;;;;;;7.78;4.00;;;25.80;52.30;;;;;;5110811;28;20035;-73
2023/05/25 00:46:47;;;;;;;5.88;3.70;;;25.80;52.30;;;;;;5112579;28;20387;-71
2023/05/25 00:49:14;;;;;;;4.32;3.38;;;25.70;52.30;;;;;;5084110;28;20036;-73
2023/05/25 00:51:45;;;;;;;4.60;3.47;;;25.90;52.30;;;;;;5092437;28;20365;-73
2023/05/25 00:54:14;;;;;;;5.05;3.08;;;25.70;52.30;;;;;;5091473;28;20122;-72
2023/05/25 00:56:43;;;;;;;6.75;3.83;;;25.70;52.20;;;;;;5120560;27;20088;-72
2023/05/25 00:59:13;;;;;;;7.07;3.05;;;25.70;52.30;;;;;;5105223;28;20464;-72
2023/05/25 01:01:40;;;;;;;7.28;3.65;;;25.60;52.40;;;;;;5096761;28;20027;-74
2023/05/25 01:04:08;;;;;;;7.72;3.35;;;25.60;52.50;;;;;;5103949;28;20336;-72
2023/05/25 01:06:38;;;;;;;7.38;3.55;;;25.60;52.60;;;;;;5095621;28;20024;-74
2023/05/25 01:09:07;;;;;;;9.10;4.55;;;25.60;52.60;;;;;;5091731;28;20614;-74
2023/05/25 01:11:36;;;;;;;5.15;3.47;;;25.60;52.90;;;;;;5113776;28;20036;-74
2023/05/25 01:14:02;;;;;;;5.97;4.22;;;25.60;53.00;;;;;;5105755;28;20077;-72
2023/05/25 01:16:28;;;;;;;8.48;4.30;;;25.50;53.00;;;;;;5112158;28;20049;-72
2023/05/25 01:18:55;;;;;;;9.73;3.90;;;25.60;53.10;;;;;;5107422;28;20036;-72
2023/05/25 01:21:49;;;;;;;9.13;3.65;;;25.70;53.10;;;;;;5099800;28;20059;-73
2023/05/25 01:24:29;;;;;;;6.28;3.78;;;25.40;53.20;;;;;;5082011;28;20067;-71
2023/05/25 01:27:06;;;;;;;7.30;3.75;;;25.70;53.30;;;;;;5053382;28;20119;-72
2023/05/25 01:29:33;;;;;;;7.68;4.40;;;25.50;53.30;;;;;;5076714;28;20166;-73
2023/05/25 01:32:02;;;;;;;7.40;4.07;;;25.50;53.30;;;;;;5088047;28;20064;-73
2023/05/25 01:34:29;;;;;;;11.10;3.40;;;25.60;53.30;;;;;;5080092;28;20039;-73
2023/05/25 01:36:55;;;;;;;11.13;3.58;;;25.50;53.30;;;;;;5066034;28;20043;-72
2023/05/25 01:39:22;;;;;;;4.32;3.30;;;25.50;53.30;;;;;;5066982;28;20060;-73
2023/05/25 01:41:48;;;;;;;5.50;3.72;;;25.70;53.30;;;;;;5082966;28;20040;-73
2023/05/25 01:44:15;;;;;;;6.32;3.75;;;25.60;53.30;;;;;;5086069;28;20131;-73
2023/05/25 01:46:41;;;;;;;6.60;3.58;;;25.60;53.20;;;;;;5072287;28;20523;-72
2023/05/25 01:49:40;;;;;;;4.75;3.67;;;25.60;53.30;;;;;;5069714;28;20049;-72
2023/05/25 01:52:25;;;;;;;9.55;4.18;;;25.50;53.30;;;;;;5069778;28;20046;-72
2023/05/25 01:55:11;;;;;;;9.02;3.47;;;25.50;53.40;;;;;;5057498;28;20044;-73
2023/05/25 01:57:42;;;;;;;5.45;3.53;;;25.50;53.40;;;;;;5062047;28;20094;-72
2023/05/25 02:00:10;;;;;;;7.13;3.72;;;25.40;53.50;;;;;;5072200;28;20127;-72
2023/05/25 02:02:41;;;;;;;6.43;3.35;;;25.40;53.60;;;;;;5094334;28;20055;-72
2023/05/25 02:05:09;;;;;;;10.32;3.65;;;25.30;53.60;;;;;;5107433;28;20039;-73
2023/05/25 02:07:35;;;;;;;7.63;3.60;;;25.30;53.60;;;;;;5094211;28;20485;-73
2023/05/25 02:10:01;;;;;;;7.35;3.65;;;25.30;53.70;;;;;;5103186;28;20131;-73
2023/05/25 02:12:28;;;;;;;8.05;3.53;;;25.40;53.90;;;;;;5109912;28;20044;-73
2023/05/25 02:14:54;;;;;;;4.35;3.15;;;25.30;54.00;;;;;;5079891;28;20401;-73
2023/05/25 02:17:20;;;;;;;7.20;3.95;;;25.30;54.00;;;;;;5070852;28;20032;-72
2023/05/25 02:19:48;;;;;;;5.57;3.60;;;25.30;54.00;;;;;;5081828;28;20076;-73
2023/05/25 02:22:15;;;;;;;8.15;3.40;;;25.40;54.00;;;;;;5086183;28;20048;-73
2023/05/25 02:24:41;;;;;;;6.03;4.00;;;25.40;53.90;;;;;;5071880;28;20738;-73
2023/05/25 02:27:07;;;;;;;4.75;3.40;;;25.30;53.90;;;;;;5058247;28;20036;-73
2023/05/25 02:29:33;;;;;;;7.15;4.00;;;25.40;53.90;;;;;;5075057;28;20044;-74
2023/05/25 02:32:00;;;;;;;4.97;3.72;;;25.40;54.00;;;;;;5088295;28;20035;-73
2023/05/25 02:34:27;;;;;;;5.35;3.92;;;25.30;54.00;;;;;;5084967;28;20071;-73
2023/05/25 02:36:53;;;;;;;8.05;3.80;;;25.50;54.00;;;;;;5109652;28;20438;-72
2023/05/25 02:39:19;;;;;;;6.22;3.67;;;25.50;54.00;;;;;;5105024;28;20048;-73
2023/05/25 02:41:45;;;;;;;8.32;3.58;;;25.30;54.00;;;;;;5075455;28;20040;-73
2023/05/25 02:44:11;;;;;;;6.30;3.47;;;25.30;54.00;;;;;;5103578;28;20498;-72
2023/05/25 02:46:37;;;;;;;4.47;3.20;;;25.30;54.00;;;;;;5089547;28;20368;-74
2023/05/25 02:49:04;;;;;;;8.63;3.38;;;25.30;54.00;;;;;;5088138;28;20035;-73
2023/05/25 02:51:31;;;;;;;4.97;3.58;;;25.30;54.00;;;;;;5090082;28;20024;-72
2023/05/25 02:53:58;;;;;;;9.75;4.00;;;25.40;54.10;;;;;;5090153;28;20078;-73
2023/05/25 02:56:26;;;;;;;6.53;3.85;;;25.30;54.10;;;;;;5084783;28;20024;-73
2023/05/25 02:58:52;;;;;;;9.18;4.07;;;25.30;54.10;;;;;;5086630;28;20041;-73
2023/05/25 03:01:33;;;;;;;4.57;3.42;;;25.30;54.20;;;;;;5084773;28;20047;-72
2023/05/25 03:03:59;;;;;;;8.95;4.05;;;25.30;54.20;;;;;;5101826;28;20437;-72
2023/05/25 03:06:27;;;;;;;7.28;3.30;;;25.30;54.20;;;;;;5098486;28;20089;-74
2023/05/25 03:09:03;;;;;;;9.55;3.30;;;25.10;54.20;;;;;;5110477;28;20040;-73
2023/05/25 03:11:29;;;;;;;7.80;3.50;;;25.30;54.40;;;;;;5092086;28;20096;-73
2023/05/25 03:13:57;;;;;;;13.90;3.63;;;25.30;54.50;;;;;;5092778;28;20062;-72
2023/05/25 03:16:24;;;;;;;6.15;3.42;;;25.20;54.50;;;;;;5091624;28;20127;-72
2023/05/25 03:18:50;;;;;;;9.75;3.60;;;25.20;54.50;;;;;;5100044;28;20055;-73
2023/05/25 03:21:16;;;;;;;7.75;3.70;;;25.30;54.40;;;;;;5093911;28;20036;-73
2023/05/25 03:23:43;;;;;;;7.82;4.07;;;25.30;54.40;;;;;;5094202;28;20062;-73
2023/05/25 03:26:09;;;;;;;7.20;3.42;;;25.20;54.50;;;;;;5092725;28;20036;-73
2023/05/25 03:28:36;;;;;;;6.03;3.70;;;25.20;54.50;;;;;;5073997;28;20075;-71
2023/05/25 03:31:03;;;;;;;7.82;3.38;;;25.20;54.50;;;;;;5091446;28;20068;-74
2023/05/25 03:33:29;;;;;;;4.85;3.42;;;25.30;54.50;;;;;;5093340;28;20041;-73
2023/05/25 03:35:55;;;;;;;7.82;3.63;;;25.40;54.50;;;;;;5103803;28;20063;-72
2023/05/25 03:38:22;;;;;;;6.47;3.20;;;25.30;54.50;;;;;;5092279;28;20127;-72
2023/05/25 03:40:48;;;;;;;3.40;2.72;;;25.30;54.50;;;;;;5085573;28;20072;-72
2023/05/25 03:43:14;;;;;;;6.68;3.47;;;25.40;54.20;;;;;;5084937;28;20131;-74
2023/05/25 03:45:43;;;;;;;6.68;3.63;;;25.40;54.00;;;;;;5072052;28;20086;-73
2023/05/25 03:48:09;;;;;;;9.02;3.50;;;25.40;53.90;;;;;;5064456;28;20481;-72
2023/05/25 03:50:35;;;;;;;4.18;2.72;;;25.50;53.90;;;;;;5054876;28;20036;-72
2023/05/25 03:53:02;;;;;;;4.20;2.30;;;25.40;53.90;;;;;;5092126;28;20044;-73
2023/05/25 03:55:28;;;;;;;6.82;3.22;;;25.50;53.90;;;;;;5074004;28;20094;-72
2023/05/25 03:57:54;;;;;;;4.43;2.90;;;25.40;53.70;;;;;;5071589;28;20037;-73
2023/05/25 04:00:20;;;;;;;6.20;3.15;;;25.40;53.60;;;;;;5083642;28;20054;-72
2023/05/25 04:02:48;;;;;;;8.80;3.78;;;25.40;53.60;;;;;;5068670;28;20043;-73
2023/05/25 04:05:14;;;;;;;4.25;3.15;;;25.40;53.70;;;;;;5067169;28;20113;-73
2023/05/25 04:07:40;;;;;;;9.55;3.35;;;25.40;53.60;;;;;;5092080;28;20042;-72
2023/05/25 04:10:06;;;;;;;4.38;2.97;;;25.30;54.10;;;;;;5102237;28;20414;-72
2023/05/25 04:12:32;;;;;;;6.13;3.05;;;25.60;54.20;;;;;;5110674;28;20036;-72
2023/05/25 04:14:59;;;;;;;3.38;2.88;;;25.40;54.10;;;;;;5099348;28;20059;-72
2023/05/25 04:17:26;;;;;;;5.30;3.05;;;25.40;54.00;;;;;;5085770;28;20539;-72
2023/05/25 04:19:52;;;;;;;4.45;3.10;;;25.60;53.90;;;;;;5087455;28;20054;-73
2023/05/25 04:22:19;;;;;;;12.15;3.53;;;25.60;53.80;;;;;;5103983;28;20388;-73
2023/05/25 04:24:47;;;;;;;6.22;3.13;;;25.50;53.80;;;;;;5103415;28;20104;-71
2023/05/25 04:27:13;;;;;;;4.97;3.35;;;25.70;53.70;;;;;;5092646;28;20090;-73
2023/05/25 04:29:40;;;;;;;7.20;3.00;;;25.60;53.50;;;;;;5097872;28;20023;-74
2023/05/25 04:32:36;;;;;;;4.67;3.10;;;25.60;53.80;;;;;;5092792;28;20039;-73
2023/05/25 04:35:35;;;;;;;4.93;3.17;;;25.50;53.90;;;;;;5069959;28;20285;-72
2023/05/25 04:38:03;;;;;;;5.78;2.40;;;25.70;53.80;;;;;;5084357;28;20048;-74
2023/05/25 04:40:32;;;;;;;3.05;2.15;;;25.70;53.70;;;;;;5057019;28;20060;-73
2023/05/25 04:42:58;;;;;;;1.25;0.90;;;25.60;53.50;;;;;;5077651;28;20047;-74
2023/05/25 04:45:24;;;;;;;1.52;0.90;;;25.60;54.80;;;;;;5059347;28;20804;-72
2023/05/25 04:47:51;;;;;;;0.60;0.60;;;25.80;54.40;;;;;;5051621;28;20388;-75
2023/05/25 04:50:17;;;;;;;10.55;2.58;;;25.80;54.00;;;;;;5068932;28;20458;-70
2023/05/25 04:52:44;;;;;;;2.92;1.42;;;25.80;54.20;;;;;;5085922;28;20045;-72
2023/05/25 04:55:10;;;;;;;4.78;2.35;;;25.70;53.80;;;;;;5054202;28;20503;-75
2023/05/25 04:57:39;;;;;;;1.70;1.23;;;25.80;52.80;;;;;;5087575;28;20045;-75
2023/05/25 05:00:08;;;;;;;3.53;2.20;;;25.90;51.30;;;;;;5087800;28;20044;-73
2023/05/25 05:02:35;;;;;;;7.30;1.85;;;25.80;49.70;;;;;;5094493;28;20039;-77
2023/05/25 05:05:01;;;;;;;2.38;1.95;;;25.90;49.50;;;;;;5086290;28;20072;-75
2023/05/25 05:07:28;;;;;;;2.05;1.48;;;25.70;49.70;;;;;;5086935;28;20072;-75
2023/05/25 05:09:54;;;;;;;1.88;1.42;;;25.70;49.10;;;;;;5070581;28;20045;-74
2023/05/25 05:12:20;;;;;;;6.55;3.35;;;25.80;48.60;;;;;;5091608;28;20052;-75
2023/05/25 05:14:49;;;;;;;3.17;1.63;;;25.70;47.50;;;;;;5082996;28;20044;-74
2023/05/25 05:17:16;;;;;;;1.42;1.33;;;25.80;48.00;;;;;;5071784;28;20044;-76
2023/05/25 05:19:43;;;;;;;1.35;1.25;;;25.80;47.40;;;;;;5091208;28;20075;-74
2023/05/25 05:22:12;;;;;;;2.28;2.08;;;25.80;47.60;;;;;;5091104;28;20152;-75
2023/05/25 05:24:38;;;;;;;1.70;1.60;;;25.80;47.40;;;;;;5110874;28;20027;-79
2023/05/25 05:27:04;;;;;;;3.55;2.83;;;25.70;47.00;;;;;;5097956;28;20527;-75
2023/05/25 05:29:41;;;;;;;2.25;1.60;;;25.80;46.90;;;;;;5091372;28;20040;-76
2023/05/25 05:32:07;;;;;;;7.50;3.78;;;25.60;46.90;;;;;;5090592;28;20024;-74
2023/05/25 05:34:35;;;;;;;7.03;4.05;;;25.70;47.50;;;;;;5090186;28;20073;-74
2023/05/25 05:37:05;;;;;;;6.65;3.90;;;25.80;50.20;;;;;;5090630;28;20440;-69
2023/05/25 05:39:31;;;;;;;6.95;3.45;;;25.70;48.00;;;;;;5089888;28;20040;-72
2023/05/25 05:41:58;;;;;;;6.78;3.72;;;25.60;48.40;;;;;;5090580;28;20119;-73
2023/05/25 05:44:24;;;;;;;10.07;4.47;;;25.70;49.30;;;;;;5090189;28;20028;-72
2023/05/25 05:46:50;;;;;;;6.30;4.15;;;25.70;49.00;;;;;;5086092;28;20039;-72
2023/05/25 05:49:16;;;;;;;6.53;4.25;;;25.60;49.10;;;;;;5087974;28;20055;-74
2023/05/25 05:51:42;;;;;;;5.63;4.10;;;25.70;48.80;;;;;;5089577;28;20440;-72
2023/05/25 05:54:08;;;;;;;7.35;4.05;;;25.50;48.90;;;;;;5087280;28;20027;-74
2023/05/25 05:56:35;;;;;;;6.25;3.65;;;25.70;49.10;;;;;;5091354;28;20032;-76
2023/05/25 05:59:01;;;;;;;5.75;3.75;;;25.70;49.10;;;;;;5090253;28;20085;-73
2023/05/25 06:01:27;;;;;;;4.90;3.70;;;25.70;49.10;;;;;;5086637;28;20038;-72
2023/05/25 06:03:54;;;;;;;7.05;4.82;;;25.70;49.20;;;;;;5089688;28;20031;-71
2023/05/25 06:06:20;;;;;;;5.22;3.85;;;25.80;49.30;;;;;;5100653;28;20028;-74
2023/05/25 06:08:47;;;;;;;8.35;4.65;;;25.70;49.30;;;;;;5087771;28;20051;-69
2023/05/25 06:11:12;;;;;;;9.48;4.22;;;25.80;49.10;;;;;;5089131;28;20086;-75
2023/05/25 06:13:39;;;;;;;10.70;4.78;;;25.80;48.90;;;;;;5089917;28;20028;-76
2023/05/25 06:16:06;;;;;;;5.20;3.63;;;25.90;48.80;;;;;;5071061;28;20119;-73
2023/05/25 06:18:32;;;;;;;5.68;3.65;;;25.80;49.40;;;;;;5063605;28;20103;-74
2023/05/25 06:21:00;;;;;;;6.97;4.55;;;25.90;49.00;;;;;;5053193;28;20127;-72
2023/05/25 06:23:26;;;;;;;7.25;4.10;;;25.80;48.60;;;;;;5071568;28;20062;-74
2023/05/25 06:25:53;;;;;;;10.70;3.83;;;25.80;48.60;;;;;;5071936;28;20055;-76
2023/05/25 06:28:20;;;;;;;8.35;4.60;;;26.00;49.10;;;;;;5089084;28;20044;-75
2023/05/25 06:30:47;;;;;;;7.72;4.72;;;26.00;49.20;;;;;;5087792;28;20081;-73
2023/05/25 06:33:13;;;;;;;9.27;4.72;;;25.90;48.90;;;;;;5088291;28;20449;-74
2023/05/25 06:35:40;;;;;;;13.18;4.28;;;26.00;49.20;;;;;;5071440;28;20043;-73
2023/05/25 06:38:06;;;;;;;10.95;4.72;;;26.00;49.10;;;;;;5048210;28;20140;-74
2023/05/25 06:40:32;;;;;;;7.53;3.97;;;25.90;48.60;;;;;;5055089;28;20298;-74
2023/05/25 06:42:58;;;;;;;9.02;3.85;;;26.00;49.10;;;;;;5048158;28;20137;-72
2023/05/25 06:46:03;;;;;;;9.80;4.00;;;26.10;49.00;;;;;;4985717;28;20030;-74
2023/05/25 06:48:29;;;;;;;5.00;2.58;;;26.00;49.00;;;;;;4969942;28;20161;-72
2023/05/25 06:50:55;;;;;;;2.05;1.27;;;26.00;49.90;;;;;;4986670;28;20437;-73
2023/05/25 06:53:21;;;;;;;3.03;1.33;;;26.10;50.10;;;;;;4989261;28;20153;-74
2023/05/25 06:55:48;;;;;;;4.78;3.05;;;26.20;50.30;;;;;;4989254;28;20125;-72
2023/05/25 06:58:14;;;;;;;6.30;2.20;;;26.10;50.00;;;;;;4987299;28;20669;-74
2023/05/25 07:00:40;;;;;;;5.63;2.60;;;26.30;50.20;;;;;;4988186;28;20038;-74
2023/05/25 07:03:06;;;;;;;15.95;2.78;;;26.30;50.20;;;;;;4985326;28;21769;-74
2023/05/25 07:05:32;;;;;;;5.50;2.00;;;26.40;49.30;;;;;;4994262;28;20050;-74
2023/05/25 07:07:58;;;;;;;4.13;3.03;;;26.30;49.00;;;;;;4984437;28;20066;-76
2023/05/25 07:10:24;;;;;;;6.13;3.25;;;26.40;49.00;;;;;;4999020;28;20725;-75
2023/05/25 07:12:51;;;;;;;2.13;1.70;;;26.30;49.00;;;;;;4994341;28;20129;-76
2023/05/25 07:15:17;;;;;;;2.75;1.23;;;26.50;49.00;;;;;;5047879;28;20021;-75
2023/05/25 07:17:44;;;;;;;1.02;0.93;;;26.30;49.00;;;;;;5085440;28;20040;-75
2023/05/25 07:20:11;;;;;;;6.05;2.97;;;26.20;49.00;;;;;;5091123;28;20403;-78
2023/05/25 07:22:37;;;;;;;3.33;2.42;;;26.20;49.00;;;;;;5057086;28;20472;-76
2023/05/25 07:25:04;;;;;;;5.20;4.20;;;26.30;48.80;;;;;;5092119;28;20054;-77
2023/05/25 07:27:32;;;;;;;7.07;3.70;;;26.30;48.80;;;;;;5096443;28;20028;-78
2023/05/25 07:29:58;;;;;;;11.38;4.35;;;26.10;49.20;;;;;;5095607;28;20569;-77
2023/05/25 07:32:24;;;;;;;5.20;3.25;;;26.20;49.00;;;;;;5094439;28;20428;-76
2023/05/25 07:34:50;;;;;;;3.88;3.30;;;26.20;48.90;;;;;;5098533;28;20024;-75
2023/05/25 07:37:16;;;;;;;5.13;3.03;;;26.30;48.80;;;;;;5090244;28;20043;-74
2023/05/25 07:39:42;;;;;;;10.88;3.85;;;26.10;48.90;;;;;;5086843;28;21568;-74
2023/05/25 07:42:09;;;;;;;9.15;4.10;;;26.20;48.90;;;;;;5093902;28;20084;-74
2023/05/25 07:44:35;;;;;;;5.72;3.45;;;26.10;48.60;;;;;;5109285;28;20023;-75
2023/05/25 07:47:01;;;;;;;4.35;3.10;;;26.10;48.90;;;;;;5106900;28;20027;-76
2023/05/25 07:49:27;;;;;;;9.27;3.33;;;26.20;49.10;;;;;;5110814;28;20141;-76
2023/05/25 07:51:53;;;;;;;10.13;3.67;;;26.10;48.80;;;;;;5098566;28;20115;-76
2023/05/25 07:54:19;;;;;;;6.20;3.63;;;26.00;48.90;;;;;;5093731;28;20129;-73
2023/05/25 07:56:46;;;;;;;4.63;3.30;;;26.00;48.90;;;;;;5094926;28;20024;-76
2023/05/25 07:59:13;;;;;;;6.70;3.00;;;26.00;49.00;;;;;;5088923;28;20039;-76
2023/05/25 08:01:39;;;;;;;3.45;2.80;;;26.00;49.10;;;;;;5090999;28;20032;-78
2023/05/25 08:04:05;;;;;;;4.60;3.30;;;26.20;49.00;;;;;;5089783;28;20050;-78
2023/05/25 08:06:31;;;;;;;5.50;3.28;;;26.10;49.00;;;;;;5093635;28;20073;-76
2023/05/25 08:08:57;;;;;;;5.97;3.03;;;26.10;49.10;;;;;;5094799;28;20375;-77
2023/05/25 08:11:26;;;;;;;3.70;2.95;;;26.10;49.50;;;;;;5093961;28;20024;-77
2023/05/25 08:13:52;;;;;;;6.43;3.17;;;26.20;49.80;;;;;;5094397;28;20036;-73
2023/05/25 08:16:18;;;;;;;2.67;2.30;;;26.20;49.40;;;;;;5093898;28;20059;-77
2023/05/25 08:18:45;;;;;;;8.00;3.38;;;26.20;49.60;;;;;;5090985;28;20097;-77
2023/05/25 08:21:12;;;;;;;10.90;3.33;;;26.20;49.60;;;;;;5094235;28;20044;-81
2023/05/25 08:23:41;;;;;;;6.07;2.78;;;26.20;49.70;;;;;;5094058;28;20044;-79
2023/05/25 08:26:08;;;;;;;3.20;2.90;;;26.10;49.70;;;;;;5091256;28;20422;-79
2023/05/25 08:28:34;;;;;;;7.60;3.75;;;26.20;49.60;;;;;;5090366;28;20094;-78
2023/05/25 08:31:00;;;;;;;3.72;3.10;;;26.10;49.50;;;;;;5098963;28;20032;-78
2023/05/25 08:33:26;;;;;;;5.40;3.15;;;26.10;49.50;;;;;;5097424;28;20047;-73
2023/05/25 08:35:52;;;;;;;4.28;2.95;;;26.20;49.50;;;;;;5086862;28;20434;-79
2023/05/25 08:38:23;;;;;;;9.82;2.42;;;26.20;49.50;;;;;;5091332;28;20032;-79
2023/05/25 08:41:05;;;;;;;3.13;2.50;;;26.20;49.30;;;;;;5089243;28;20054;-78
2023/05/25 08:43:33;;;;;;;5.40;3.20;;;26.10;49.10;;;;;;5091082;28;20039;-79
2023/05/25 08:46:05;;;;;;;4.80;3.17;;;26.20;49.60;;;;;;5093253;28;20036;-76
2023/05/25 08:48:37;;;;;;;4.70;3.35;;;26.10;49.60;;;;;;5072785;28;20021;-78
2023/05/25 08:51:07;;;;;;;5.72;3.15;;;26.10;49.60;;;;;;5073590;28;20047;-78
2023/05/25 08:53:38;;;;;;;5.72;2.95;;;26.00;49.70;;;;;;5086082;28;20074;-78
2023/05/25 08:56:19;;;;;;;9.52;3.92;;;26.00;49.80;;;;;;5093610;28;20063;-78
2023/05/25 08:58:56;;;;;;;7.80;3.13;;;26.00;49.90;;;;;;5091014;28;20131;-75
2023/05/25 09:01:26;;;;;;;6.78;2.65;;;26.10;50.00;;;;;;5091193;28;20028;-79
2023/05/25 09:03:55;;;;;;;4.00;2.80;;;26.10;50.00;;;;;;5093176;28;20038;-79
2023/05/25 09:06:23;;;;;;;3.70;3.13;;;26.10;49.90;;;;;;5091784;28;20046;-78
2023/05/25 09:08:50;;;;;;;5.95;2.83;;;26.00;50.00;;;;;;5092666;28;20111;-79
2023/05/25 09:11:16;;;;;;;7.90;2.70;;;25.90;49.60;;;;;;5092078;28;20028;-77
2023/05/25 09:13:42;;;;;;;5.80;3.03;;;26.00;50.10;;;;;;5091784;28;20040;-77
2023/05/25 09:16:09;;;;;;;4.95;2.88;;;26.00;49.90;;;;;;5093376;28;20036;-77
2023/05/25 09:18:35;;;;;;;4.85;2.40;;;26.00;50.20;;;;;;5092865;28;20059;-78
2023/05/25 09:21:01;;;;;;;2.63;2.40;;;26.10;50.20;;;;;;5093654;28;20443;-78
2023/05/25 09:23:28;;;;;;;5.05;2.08;;;26.00;50.30;;;;;;5091649;28;20052;-77
2023/05/25 09:25:55;;;;;;;3.13;2.83;;;26.00;49.70;;;;;;5092854;28;20097;-77
2023/05/25 09:28:21;;;;;;;6.68;2.85;;;26.00;50.20;;;;;;5086142;28;20093;-78
2023/05/25 09:30:47;;;;;;;4.65;2.75;;;26.00;50.20;;;;;;5091700;28;20031;-77
2023/05/25 09:33:17;;;;;;;2.88;2.22;;;25.90;49.40;;;;;;5091794;28;20028;-78
2023/05/25 09:35:47;;;;;;;3.42;2.10;;;26.00;48.80;;;;;;5092910;28;20036;-78
2023/05/25 09:38:17;;;;;;;5.80;2.30;;;26.00;50.40;;;;;;5092111;28;20105;-78
2023/05/25 09:40:43;;;;;;;3.13;2.33;;;26.10;49.80;;;;;;5076817;28;20377;-79
2023/05/25 09:43:11;;;;;;;2.67;2.00;;;26.00;50.30;;;;;;5091371;28;20024;-78
2023/05/25 09:45:37;;;;;;;3.08;2.53;;;25.90;49.80;;;;;;5108147;28;20028;-79
2023/05/25 09:48:05;;;;;;;5.38;2.28;;;26.00;50.20;;;;;;5092372;28;20089;-77
2023/05/25 09:50:31;;;;;;;5.05;2.50;;;26.00;50.50;;;;;;5090844;28;20521;-78
2023/05/25 09:53:01;;;;;;;4.30;2.60;;;26.00;50.60;;;;;;5092546;28;20047;-79
2023/05/25 09:55:28;;;;;;;6.90;3.15;;;26.00;50.50;;;;;;5092547;28;20032;-78
2023/05/25 09:57:56;;;;;;;3.45;2.38;;;26.00;50.70;;;;;;5091321;28;20047;-78
2023/05/25 10:00:25;;;;;;;3.17;2.53;;;25.90;49.90;;;;;;5091982;28;20035;-74
2023/05/25 10:02:52;;;;;;;3.63;2.72;;;25.80;50.50;;;;;;5099584;28;20027;-75
2023/05/25 10:05:18;;;;;;;4.13;3.03;;;26.00;50.80;;;;;;5097041;28;20413;-75
2023/05/25 10:07:45;;;;;;;3.13;2.80;;;26.00;52.70;;;;;;5107373;28;20086;-78
2023/05/25 10:10:15;;;;;;;5.28;3.10;;;26.10;54.50;;;;;;5101028;28;20057;-73
2023/05/25 10:12:43;;;;;;;5.07;3.22;;;26.40;52.10;;;;;;5091787;28;20024;-73
2023/05/25 10:15:11;;;;;;;5.40;3.00;;;26.40;51.30;;;;;;5095493;28;20424;-75
2023/05/25 10:17:44;;;;;;;6.95;3.75;;;26.40;49.60;;;;;;5096513;28;20084;-75
2023/05/25 10:20:12;;;;;;;3.00;2.70;;;26.40;50.50;;;;;;5105175;28;20055;-71
2023/05/25 10:22:43;;;;;;;3.95;3.45;;;26.20;51.10;;;;;;5071357;28;20180;-72
2023/05/25 10:25:26;;;;;;;2.92;2.55;;;26.20;50.00;;;;;;5090100;28;20032;-73
2023/05/25 10:28:00;;;;;;;6.43;3.30;;;26.20;49.50;;;;;;5098483;28;20036;-71
2023/05/25 10:30:26;;;;;;;4.05;2.50;;;26.30;52.70;;;;;;5106453;28;20034;-74
2023/05/25 10:32:54;;;;;;;4.78;2.67;;;26.60;57.00;;;;;;5090934;28;20207;-70
2023/05/25 10:35:21;;;;;;;4.32;2.85;;;26.90;57.70;;;;;;5105751;28;20036;-69
2023/05/25 10:37:51;;;;;;;4.53;2.85;;;27.40;57.50;;;;;;5090137;28;20035;-70
2023/05/25 10:40:20;;;;;;;6.22;3.53;;;27.40;58.20;;;;;;5087133;28;20131;-72
2023/05/25 10:42:46;;;;;;;3.78;2.75;;;27.60;58.00;;;;;;5087911;28;20032;-69
2023/05/25 10:45:12;;;;;;;4.95;2.72;;;27.70;51.70;;;;;;5091740;28;20069;-70
2023/05/25 10:47:41;;;;;;;3.83;3.10;;;27.60;50.50;;;;;;5096668;28;20065;-71
2023/05/25 10:50:19;;;;;;;3.63;3.00;;;27.50;48.90;;;;;;5106861;28;20081;-71
2023/05/25 10:52:55;;;;;;;4.80;3.58;;;27.40;49.20;;;;;;5094552;28;20423;-71
2023/05/25 10:55:21;;;;;;;5.53;3.17;;;27.40;50.30;;;;;;5089059;28;20024;-71
2023/05/25 10:58:10;;;;;;;5.05;3.00;;;27.30;49.60;;;;;;5090862;28;20433;-72
2023/05/25 11:00:37;;;;;;;3.22;2.65;;;27.40;49.90;;;;;;5093848;28;20159;-73
2023/05/25 11:03:03;;;;;;;7.93;3.00;;;27.20;49.00;;;;;;5106630;28;20041;-73
2023/05/25 11:05:37;;;;;;;5.38;2.42;;;27.20;48.10;;;;;;5109959;28;20744;-72
2023/05/25 11:08:06;;;;;;;5.30;3.10;;;27.10;48.30;;;;;;5087641;28;20639;-72
2023/05/25 11:10:48;;;;;;;3.35;2.83;;;27.10;48.30;;;;;;5089840;28;20047;-71
2023/05/25 11:13:34;;;;;;;6.20;2.95;;;27.00;48.10;;;;;;5088015;28;20051;-72
2023/05/25 11:16:13;;;;;;;2.92;2.10;;;26.90;48.30;;;;;;5105184;28;20023;-72
2023/05/25 11:19:13;;;;;;;2.38;2.17;;;26.90;51.00;;;;;;5110968;28;20077;-73
2023/05/25 11:21:41;;;;;;;3.40;2.30;;;26.90;51.90;;;;;;5074130;28;20172;-73
2023/05/25 11:24:13;;;;;;;6.82;3.15;;;26.90;52.60;;;;;;5087305;28;20052;-72
2023/05/25 11:26:53;;;;;;;4.45;2.22;;;26.80;52.40;;;;;;5082337;28;20039;-71
2023/05/25 11:29:20;;;;;;;3.15;2.35;;;27.00;53.10;;;;;;5067088;28;20020;-72
2023/05/25 11:31:53;;;;;;;2.60;2.40;;;26.90;52.90;;;;;;5061653;28;20066;-72
2023/05/25 11:34:24;;;;;;;3.53;2.55;;;26.80;53.00;;;;;;5088470;28;20039;-72
2023/05/25 11:37:01;;;;;;;2.38;2.13;;;26.70;52.50;;;;;;5090364;28;20046;-73
2023/05/25 11:39:28;;;;;;;4.10;2.78;;;26.70;53.10;;;;;;5053506;28;20052;-71
2023/05/25 11:41:56;;;;;;;6.88;2.72;;;26.80;53.40;;;;;;5078354;28;20036;-74
2023/05/25 11:44:30;;;;;;;2.25;2.05;;;26.60;53.40;;;;;;5077405;28;20056;-73
2023/05/25 11:46:56;;;;;;;2.90;2.17;;;26.60;52.60;;;;;;5073511;28;20045;-75
2023/05/25 11:49:24;;;;;;;3.40;1.73;;;26.60;54.40;;;;;;5087346;28;20476;-75
2023/05/25 11:51:50;;;;;;;6.38;2.30;;;26.60;54.60;;;;;;5085168;28;20063;-71
2023/05/25 11:54:27;;;;;;;4.97;2.42;;;26.50;54.80;;;;;;5071615;28;20048;-71
2023/05/25 11:56:57;;;;;;;4.95;2.30;;;26.60;54.20;;;;;;5080882;28;20427;-73
2023/05/25 11:59:25;;;;;;;4.60;1.70;;;26.50;53.70;;;;;;5092743;28;20043;-73
2023/05/25 12:02:01;;;;;;;4.43;1.90;;;26.60;53.90;;;;;;5094539;28;20028;-73
2023/05/25 12:04:29;;;;;;;7.63;2.60;;;26.60;53.10;;;;;;5094502;28;20122;-69
2023/05/25 12:07:01;;;;;;;3.97;2.22;;;26.60;53.30;;;;;;5094635;28;20036;-73
2023/05/25 12:09:27;;;;;;;2.38;1.70;;;26.50;53.10;;;;;;5093223;28;20043;-73
2023/05/25 12:11:54;;;;;;;3.28;2.10;;;26.50;53.00;;;;;;5092925;28;20036;-73
2023/05/25 12:14:20;;;;;;;2.75;2.30;;;26.50;52.70;;;;;;5080011;28;20575;-73
2023/05/25 12:16:46;;;;;;;2.63;2.20;;;26.50;53.00;;;;;;5076918;28;20024;-73
2023/05/25 12:19:12;;;;;;;2.58;2.08;;;26.50;52.50;;;;;;5083473;28;20502;-73
2023/05/25 12:21:39;;;;;;;2.85;2.20;;;26.40;52.50;;;;;;5090889;28;20036;-72
2023/05/25 12:24:07;;;;;;;5.03;1.95;;;26.60;52.20;;;;;;5097449;28;20044;-76
2023/05/25 12:26:33;;;;;;;5.85;2.08;;;26.60;51.70;;;;;;5114630;28;20122;-75
2023/05/25 12:29:07;;;;;;;1.95;1.80;;;26.60;52.00;;;;;;5114460;28;20073;-75
2023/05/25 12:31:35;;;;;;;7.38;2.38;;;26.60;52.30;;;;;;5114779;28;20062;-75
2023/05/25 12:34:18;;;;;;;3.40;2.08;;;26.50;52.20;;;;;;5113441;28;20115;-77
2023/05/25 12:36:51;;;;;;;2.78;2.13;;;26.60;52.50;;;;;;5116356;28;20050;-73
2023/05/25 12:39:38;;;;;;;3.92;2.28;;;26.60;52.50;;;;;;5114593;28;20118;-73
2023/05/25 12:42:07;;;;;;;2.42;2.22;;;26.50;52.30;;;;;;5113530;28;20032;-73
2023/05/25 12:44:35;;;;;;;7.35;2.55;;;26.60;52.70;;;;;;5108081;28;20157;-75
2023/05/25 12:47:21;;;;;;;1.83;1.73;;;26.60;52.20;;;;;;5091487;28;20039;-72
2023/05/25 12:49:52;;;;;;;1.85;1.50;;;26.80;52.80;;;;;;5093575;28;20028;-78
2023/05/25 12:52:35;;;;;;;3.10;2.00;;;26.70;53.00;;;;;;5094022;28;20043;-77